Time;durP1;ratioP1;P1;durP2;ratioP2;P2;SDS_P1;SDS_P2;PMS_P1;PMS_P2;Temp;Humidity;BMP_temperature;BMP_pressure;BME280_temperature;BME280_humidity;BME280_pressure;Samples;Min_cycle;Max_cycle;Signal;HPM_P1;HPM_P2
2020/12/16 00:02:52;;;;;;;13.13;7.35;;;;;;;19.62;48.40;100864.98;2321945;76;50679;-75
2020/12/16 00:05:54;;;;;;;12.60;8.08;;;;;;;19.59;48.45;100868.35;2308263;76;51489;-76
2020/12/16 00:08:57;;;;;;;11.20;7.87;;;;;;;19.59;48.46;100875.58;2304205;76;50305;-75
2020/12/16 00:11:59;;;;;;;12.80;8.05;;;;;;;19.59;48.50;100876.92;2314185;76;50317;-76
2020/12/16 00:15:01;;;;;;;11.43;7.62;;;;;;;19.55;48.57;100889.06;2292077;76;49654;-76
2020/12/16 00:18:03;;;;;;;10.45;7.65;;;;;;;19.52;48.55;100892.95;2316682;76;51629;-76
2020/12/16 00:21:05;;;;;;;14.80;8.30;;;;;;;19.55;48.50;100899.80;2321273;75;51481;-76
2020/12/16 00:24:07;;;;;;;13.80;8.08;;;;;;;19.52;48.57;100903.68;2321802;76;50846;-76
2020/12/16 00:27:13;;;;;;;12.35;7.62;;;;;;;19.50;48.55;100906.22;2321572;75;50382;-77
2020/12/16 00:30:15;;;;;;;10.30;7.28;;;;;;;19.49;48.62;100909.91;2322071;76;50468;-76
2020/12/16 00:33:18;;;;;;;12.58;7.78;;;;;;;19.50;48.60;100917.78;2315337;76;50376;-76
2020/12/16 00:36:20;;;;;;;10.68;7.65;;;;;;;19.47;48.63;100914.13;2308787;76;51604;-74
2020/12/16 00:39:22;;;;;;;9.83;7.60;;;;;;;19.48;48.61;100920.33;2313871;75;51537;-76
2020/12/16 00:42:25;;;;;;;14.20;7.60;;;;;;;19.46;48.66;100924.52;2317823;75;51572;-75
2020/12/16 00:45:27;;;;;;;11.22;6.78;;;;;;;19.45;48.68;100922.03;2321017;75;50410;-75
2020/12/16 00:48:29;;;;;;;10.68;8.08;;;;;;;19.45;48.66;100930.09;2313626;75;51573;-74
2020/12/16 00:51:31;;;;;;;10.55;7.22;;;;;;;19.44;48.68;100941.30;2317280;76;50382;-74
2020/12/16 00:54:34;;;;;;;10.98;7.40;;;;;;;19.44;48.70;100947.19;2321826;76;50331;-74
2020/12/16 00:57:36;;;;;;;11.15;7.62;;;;;;;19.44;48.72;100956.58;2315860;75;50606;-74
2020/12/16 01:00:38;;;;;;;12.10;7.85;;;;;;;19.41;48.77;100954.27;2314492;76;51577;-76
2020/12/16 01:03:40;;;;;;;10.40;7.17;;;;;;;19.40;48.82;100952.09;2321935;76;51516;-75
2020/12/16 01:06:42;;;;;;;12.37;7.25;;;;;;;19.42;48.72;100966.17;2301842;76;51476;-74
2020/12/16 01:09:45;;;;;;;12.35;7.47;;;;;;;19.41;48.81;100965.00;2284004;76;50295;-75
2020/12/16 01:12:48;;;;;;;13.38;7.67;;;;;;;19.39;48.74;100967.02;2313957;75;50730;-74
2020/12/16 01:15:50;;;;;;;10.23;7.30;;;;;;;19.40;48.76;100972.73;2316952;76;50339;-75
2020/12/16 01:18:52;;;;;;;10.05;6.83;;;;;;;19.39;48.80;100969.70;2321792;76;51571;-75
2020/12/16 01:21:55;;;;;;;9.08;7.10;;;;;;;19.39;48.80;100981.78;2316119;75;50402;-75
2020/12/16 01:24:57;;;;;;;9.73;6.60;;;;;;;19.36;48.88;100986.48;2314093;75;50094;-76
2020/12/16 01:28:02;;;;;;;10.10;7.22;;;;;;;19.36;48.80;100990.51;2313916;75;50036;-76
2020/12/16 01:31:04;;;;;;;10.68;6.87;;;;;;;19.36;48.82;100996.39;2313941;76;50151;-76
2020/12/16 01:34:06;;;;;;;12.85;7.75;;;;;;;19.35;48.87;101002.27;2313713;75;51476;-76
2020/12/16 01:37:09;;;;;;;9.20;6.75;;;;;;;19.35;48.83;100997.42;2321343;76;51530;-76
2020/12/16 01:40:11;;;;;;;9.85;6.83;;;;;;;19.35;48.86;101008.15;2319148;76;51488;-76
2020/12/16 01:43:14;;;;;;;9.28;6.72;;;;;;;19.33;48.91;101009.66;2317651;76;50399;-76
2020/12/16 01:46:17;;;;;;;11.93;6.72;;;;;;;19.31;48.97;101007.66;2314658;76;50794;-76
2020/12/16 01:49:20;;;;;;;7.87;6.55;;;;;;;19.29;49.01;101007.02;2315385;76;51622;-76
2020/12/16 01:52:22;;;;;;;10.98;7.08;;;;;;;19.29;49.01;101007.02;2321817;75;52391;-76
2020/12/16 01:55:24;;;;;;;13.70;6.87;;;;;;;19.30;48.94;101008.68;2321855;76;50341;-76
2020/12/16 01:58:26;;;;;;;10.05;6.80;;;;;;;19.28;49.02;101005.34;2321757;76;50260;-76
2020/12/16 02:01:28;;;;;;;10.05;6.78;;;;;;;19.26;49.08;101010.03;2321669;76;50687;-75
2020/12/16 02:04:37;;;;;;;11.10;7.20;;;;;;;19.26;49.05;101024.80;2321581;75;51523;-75
2020/12/16 02:07:41;;;;;;;11.45;6.30;;;;;;;19.27;49.03;101026.48;2321187;76;50255;-74
2020/12/16 02:10:44;;;;;;;9.78;6.28;;;;;;;19.25;49.08;101019.11;2314813;75;51520;-74
2020/12/16 02:13:46;;;;;;;10.70;7.08;;;;;;;19.22;49.14;101019.47;2315352;76;51517;-75
2020/12/16 02:16:48;;;;;;;9.80;6.85;;;;;;;19.22;49.16;101022.16;2321909;76;50483;-76
2020/12/16 02:19:58;;;;;;;9.35;6.83;;;;;;;19.23;49.12;101029.18;2317452;75;50328;-75
2020/12/16 02:23:00;;;;;;;10.58;6.28;;;;;;;19.20;49.20;101029.54;2313750;75;51589;-76
2020/12/16 02:26:02;;;;;;;11.33;7.28;;;;;;;19.21;49.23;101036.56;2320801;75;51502;-75
2020/12/16 02:29:04;;;;;;;8.85;6.50;;;;;;;19.19;49.21;101035.94;2321376;76;50458;-75
2020/12/16 02:32:07;;;;;;;12.45;6.58;;;;;;;19.20;49.18;101042.12;2321794;76;50772;-75
2020/12/16 02:35:09;;;;;;;10.10;6.58;;;;;;;19.20;49.13;101045.64;2321521;76;52591;-74
2020/12/16 02:38:11;;;;;;;10.82;7.00;;;;;;;19.18;49.20;101050.34;2321180;76;51470;-75
2020/12/16 02:41:13;;;;;;;8.45;6.40;;;;;;;19.16;49.23;101049.67;2321693;76;51465;-75
2020/12/16 02:44:15;;;;;;;9.65;6.67;;;;;;;19.17;49.24;101051.88;2316203;76;51521;-75
2020/12/16 02:47:18;;;;;;;8.63;6.22;;;;;;;19.14;49.30;101065.97;2314603;75;51509;-75
2020/12/16 02:50:20;;;;;;;9.05;6.70;;;;;;;19.12;49.44;101057.77;2321751;75;51501;-75
2020/12/16 02:53:22;;;;;;;10.65;6.83;;;;;;;19.13;49.36;101061.59;2320521;76;50264;-75
2020/12/16 02:56:24;;;;;;;9.40;6.17;;;;;;;19.12;49.35;101066.64;2321839;76;51667;-76
2020/12/16 02:59:27;;;;;;;7.47;6.28;;;;;;;19.11;49.35;101060.95;2321700;76;50366;-75
2020/12/16 03:02:29;;;;;;;8.40;6.42;;;;;;;19.11;49.38;101068.14;2321096;75;51541;-76
2020/12/16 03:05:31;;;;;;;9.48;7.15;;;;;;;19.12;49.31;101073.34;2314504;75;51502;-75
2020/12/16 03:08:34;;;;;;;8.98;6.05;;;;;;;19.12;49.38;101071.17;2316110;76;50369;-75
2020/12/16 03:11:36;;;;;;;8.90;6.65;;;;;;;19.11;49.39;101072.17;2313953;75;50173;-75
2020/12/16 03:14:38;;;;;;;9.50;6.15;;;;;;;19.10;49.38;101076.70;2321867;75;50766;-74
2020/12/16 03:17:40;;;;;;;6.15;5.20;;;;;;;19.09;49.39;101077.73;2318964;75;51404;-75
2020/12/16 03:20:43;;;;;;;7.65;6.33;;;;;;;19.08;49.38;101076.55;2313712;76;50750;-75
2020/12/16 03:23:45;;;;;;;10.53;6.83;;;;;;;19.08;49.42;101084.59;2292017;76;50757;-74
2020/12/16 03:26:47;;;;;;;10.38;6.37;;;;;;;19.05;49.54;101087.64;2314747;75;51516;-74
2020/12/16 03:29:49;;;;;;;8.23;5.95;;;;;;;19.06;49.47;101089.30;2322373;75;51508;-74
2020/12/16 03:32:51;;;;;;;8.55;6.00;;;;;;;19.05;49.59;101089.80;2322456;76;51693;-75
2020/12/16 03:35:54;;;;;;;7.67;5.65;;;;;;;19.05;49.57;101099.70;2322534;75;51577;-75
2020/12/16 03:38:56;;;;;;;8.45;6.08;;;;;;;19.04;49.49;101096.70;2315665;75;51531;-76
2020/12/16 03:41:58;;;;;;;8.35;6.10;;;;;;;19.05;49.47;101109.09;2316137;76;50268;-75
2020/12/16 03:45:00;;;;;;;9.95;6.40;;;;;;;19.04;49.51;101099.39;2322678;76;50432;-76
2020/12/16 03:48:02;;;;;;;9.20;6.40;;;;;;;19.04;49.49;101102.90;2317897;76;50695;-75
2020/12/16 03:51:07;;;;;;;9.00;6.03;;;;;;;19.02;49.62;101101.41;2314381;75;51616;-75
2020/12/16 03:54:09;;;;;;;8.48;5.55;;;;;;;19.02;49.54;101106.77;2321081;76;50555;-74
2020/12/16 03:57:13;;;;;;;10.32;6.08;;;;;;;19.01;49.56;101111.78;2320018;76;50405;-75
2020/12/16 04:00:15;;;;;;;8.65;6.00;;;;;;;19.01;49.58;101111.30;2314224;75;51652;-76
2020/12/16 04:03:17;;;;;;;10.68;5.90;;;;;;;19.01;49.62;101114.46;2319048;75;50296;-75
2020/12/16 04:06:19;;;;;;;9.00;5.92;;;;;;;18.99;49.58;101116.00;2322196;75;50043;-74
2020/12/16 04:09:21;;;;;;;9.83;6.08;;;;;;;18.99;49.64;101124.04;2314222;75;50781;-74
2020/12/16 04:12:24;;;;;;;7.47;5.62;;;;;;;18.99;49.67;101124.04;2314200;76;50260;-74
2020/12/16 04:15:26;;;;;;;7.70;5.53;;;;;;;18.95;49.77;101125.90;2314090;75;50727;-75
2020/12/16 04:18:28;;;;;;;11.70;5.83;;;;;;;18.96;49.76;101132.92;2318798;76;51322;-75
2020/12/16 04:21:30;;;;;;;8.35;5.42;;;;;;;18.96;49.78;101130.23;2321701;76;51472;-76
2020/12/16 04:24:32;;;;;;;10.63;5.50;;;;;;;18.93;49.74;101129.59;2314234;75;52195;-76
2020/12/16 04:27:34;;;;;;;8.70;5.42;;;;;;;18.95;49.71;101136.11;2317894;76;50316;-74
2020/12/16 04:30:37;;;;;;;8.85;5.10;;;;;;;18.95;49.69;101133.43;2321779;76;50357;-74
2020/12/16 04:33:39;;;;;;;8.60;5.87;;;;;;;18.92;49.81;101127.91;2321431;75;50605;-74
2020/12/16 04:36:41;;;;;;;7.83;5.60;;;;;;;18.93;49.81;101130.94;2320012;75;51554;-74
2020/12/16 04:39:43;;;;;;;6.97;5.40;;;;;;;18.93;49.74;101128.27;2313523;75;51423;-77
2020/12/16 04:42:46;;;;;;;9.53;5.70;;;;;;;18.92;49.80;101127.91;2317981;76;51612;-75
2020/12/16 04:45:49;;;;;;;8.13;5.62;;;;;;;18.95;49.84;101137.97;2299782;76;51588;-74
2020/12/16 04:48:51;;;;;;;6.47;5.15;;;;;;;18.95;49.68;101141.98;2321599;76;50281;-76
2020/12/16 04:51:53;;;;;;;10.85;5.60;;;;;;;18.93;49.68;101144.35;2320390;76;50758;-76
2020/12/16 04:54:56;;;;;;;8.73;5.30;;;;;;;18.93;49.65;101149.71;2313940;75;51561;-75
2020/12/16 04:57:58;;;;;;;10.03;5.37;;;;;;;18.93;49.70;101155.08;2314153;75;51557;-75
2020/12/16 05:01:00;;;;;;;7.37;5.15;;;;;;;18.95;49.84;101155.39;2266518;76;50125;-75
2020/12/16 05:04:03;;;;;;;7.85;5.42;;;;;;;18.95;49.98;101163.44;2314027;75;50664;-75
2020/12/16 05:07:05;;;;;;;11.78;5.37;;;;;;;18.93;49.82;101167.14;2310830;76;51554;-75
2020/12/16 05:10:07;;;;;;;7.12;5.20;;;;;;;18.92;49.76;101166.80;2316976;75;51578;-75
2020/12/16 05:13:13;;;;;;;7.12;5.22;;;;;;;18.91;49.79;101163.79;2322258;76;51508;-76
2020/12/16 05:16:17;;;;;;;11.60;5.50;;;;;;;18.89;49.93;101173.84;2321521;75;50526;-76
2020/12/16 05:19:39;;;;;;;10.32;5.50;;;;;;;18.88;50.07;101183.39;2320039;76;50697;-75
2020/12/16 05:22:41;;;;;;;7.53;5.05;;;;;;;18.91;49.84;101191.95;2313912;75;50556;-75
2020/12/16 05:26:01;;;;;;;10.75;4.95;;;;;;;18.92;49.84;101193.61;2319349;76;50366;-74
2020/12/16 05:29:03;;;;;;;6.83;5.22;;;;;;;18.95;49.76;101189.75;2313140;75;51637;-77
2020/12/16 05:32:16;;;;;;;9.78;5.20;;;;;;;18.96;49.83;101195.94;2312842;76;52386;-73
2020/12/16 05:35:26;;;;;;;8.93;5.15;;;;;;;18.95;50.07;101197.80;2322069;76;50843;-73
2020/12/16 05:38:28;;;;;;;11.18;5.25;;;;;;;18.98;50.14;101204.66;2294678;76;50222;-72
2020/12/16 05:41:31;;;;;;;7.35;4.45;;;;;;;19.00;50.01;101201.30;2314432;75;50804;-72
2020/12/16 05:44:34;;;;;;;13.03;6.08;;;;;;;19.03;49.96;101199.61;2319920;76;51654;-72
2020/12/16 05:47:39;;;;;;;7.83;5.37;;;;;;;19.05;49.87;101205.14;2321927;75;51519;-72
2020/12/16 05:51:01;;;;;;;9.13;5.33;;;;;;;19.09;49.86;101205.64;2279393;75;22340;-73
2020/12/16 05:54:07;;;;;;;7.90;4.92;;;;;;;19.14;49.83;101210.81;2292201;75;50211;-73
2020/12/16 05:57:13;;;;;;;8.45;4.53;;;;;;;19.26;49.61;101219.82;2301929;76;50474;-72
2020/12/16 06:00:18;;;;;;;7.78;4.05;;;;;;;19.33;49.44;101227.52;2310354;76;50214;-73
2020/12/16 06:03:26;;;;;;;6.50;4.95;;;;;;;19.41;49.26;101225.30;2315574;76;22294;-73
2020/12/16 06:06:28;;;;;;;7.05;4.90;;;;;;;19.42;49.21;101229.64;2321468;76;50748;-72
2020/12/16 06:09:33;;;;;;;7.42;4.58;;;;;;;19.44;49.16;101227.63;2315405;75;50358;-74
2020/12/16 06:12:39;;;;;;;5.55;4.35;;;;;;;19.50;49.06;101235.83;2300294;76;50776;-75
2020/12/16 06:15:56;;;;;;;11.60;4.53;;;;;;;19.52;49.01;101239.19;2295121;77;50430;-74
2020/12/16 06:18:59;;;;;;;7.50;4.92;;;;;;;19.58;48.94;101243.02;2287351;76;50618;-75
2020/12/16 06:22:03;;;;;;;7.65;4.42;;;;;;;19.63;48.82;101243.33;2288272;76;51579;-75
2020/12/16 06:25:07;;;;;;;6.10;4.25;;;;;;;19.66;48.76;101242.97;2290265;76;53320;-74
2020/12/16 06:28:09;;;;;;;7.25;4.20;;;;;;;19.67;48.82;101250.03;2321463;75;51569;-76
2020/12/16 06:31:26;;;;;;;9.60;4.12;;;;;;;19.71;48.85;101248.68;2321440;75;51471;-74
2020/12/16 06:34:28;;;;;;;9.53;4.17;;;;;;;19.75;48.83;101254.01;2321512;75;51474;-74
2020/12/16 06:37:30;;;;;;;6.05;4.10;;;;;;;19.79;48.88;101255.34;2321413;76;51616;-74
2020/12/16 06:40:48;;;;;;;7.90;4.20;;;;;;;19.84;48.87;101255.33;2321491;75;51458;-75
2020/12/16 06:43:53;;;;;;;7.55;4.33;;;;;;;19.89;48.87;101259.67;2321666;75;50369;-75
2020/12/16 06:46:57;;;;;;;9.48;4.33;;;;;;;19.93;48.91;101266.34;2321406;76;50780;-76
2020/12/16 06:50:02;;;;;;;10.93;3.80;;;;;;;19.97;48.92;101271.19;2320445;76;50887;-76
2020/12/16 06:53:10;;;;;;;7.67;4.70;;;;;;;20.01;48.85;101265.80;2319862;76;50765;-78
2020/12/16 06:56:12;;;;;;;10.15;4.33;;;;;;;20.06;48.87;101273.81;2342253;74;50787;-76
2020/12/16 06:59:15;;;;;;;12.85;4.75;;;;;;;20.09;49.18;101277.48;2353681;75;50681;-77
2020/12/16 07:02:35;;;;;;;13.50;4.53;;;;;;;20.12;49.45;101279.33;2322214;75;50382;-76
2020/12/16 07:05:39;;;;;;;11.90;4.70;;;;;;;20.15;49.60;101288.38;2322351;76;50423;-77
2020/12/16 07:08:42;;;;;;;13.35;4.67;;;;;;;20.21;49.63;101301.08;2324204;75;51498;-76
2020/12/16 07:11:49;;;;;;;9.38;4.58;;;;;;;20.25;49.68;101302.92;2322481;76;50395;-76
2020/12/16 07:14:51;;;;;;;10.00;5.00;;;;;;;20.28;49.71;101296.36;2322447;75;51590;-77
2020/12/16 07:17:56;;;;;;;9.53;4.60;;;;;;;20.30;49.71;101305.09;2322446;75;51529;-76
2020/12/16 07:21:00;;;;;;;11.38;4.05;;;;;;;20.38;49.58;101310.40;2311370;75;51526;-76
2020/12/16 07:24:10;;;;;;;12.33;4.53;;;;;;;20.39;49.56;101316.09;2322355;75;50510;-76
2020/12/16 07:27:14;;;;;;;10.03;4.47;;;;;;;20.43;49.48;101314.22;2320004;76;51581;-75
2020/12/16 07:30:16;;;;;;;9.60;4.40;;;;;;;20.46;49.40;101318.40;2298798;76;50179;-76
2020/12/16 07:33:18;;;;;;;10.45;4.17;;;;;;;20.52;49.35;101327.08;2320269;76;50126;-75
2020/12/16 07:36:21;;;;;;;11.25;5.00;;;;;;;20.55;49.25;101324.09;2321079;76;50673;-76
2020/12/16 07:39:24;;;;;;;10.38;4.45;;;;;;;20.58;49.25;101330.96;2322237;75;51519;-76
2020/12/16 07:42:30;;;;;;;11.03;4.17;;;;;;;20.59;49.26;101331.28;2322321;75;51496;-76
2020/12/16 07:45:32;;;;;;;11.50;4.42;;;;;;;20.60;49.19;101321.70;2321627;75;50401;-76
2020/12/16 07:48:37;;;;;;;14.63;4.83;;;;;;;20.62;49.20;101319.64;2320027;76;50305;-75
2020/12/16 07:51:39;;;;;;;18.25;4.87;;;;;;;20.64;49.12;101315.44;2320304;76;51606;-76
2020/12/16 07:54:41;;;;;;;11.00;4.62;;;;;;;20.68;49.05;101319.45;2319434;76;51409;-77
2020/12/16 07:57:44;;;;;;;10.75;4.40;;;;;;;20.71;48.93;101323.63;2320228;76;50815;-76
2020/12/16 08:00:46;;;;;;;16.80;4.37;;;;;;;20.71;48.86;101322.29;2307046;76;51697;-75
2020/12/16 08:03:48;;;;;;;13.72;4.75;;;;;;;20.94;48.33;101325.78;2297371;76;50399;-76
2020/12/16 08:06:51;;;;;;;12.45;4.20;;;;;;;20.99;48.19;101322.52;2308046;75;50402;-77
2020/12/16 08:10:00;;;;;;;10.90;4.05;;;;;;;21.12;47.88;101317.37;2300006;76;50691;-78
2020/12/16 08:13:02;;;;;;;13.75;4.87;;;;;;;21.22;47.63;101318.42;2317135;76;50775;-77
2020/12/16 08:16:06;;;;;;;6.33;3.70;;;;;;;21.25;47.48;101320.25;2301841;76;50727;-76
2020/12/16 08:19:08;;;;;;;11.63;4.15;;;;;;;21.35;47.28;101318.64;2315696;76;50645;-81
2020/12/16 08:22:13;;;;;;;9.85;3.62;;;;;;;21.39;47.21;101317.27;2303158;76;51568;-74
2020/12/16 08:25:17;;;;;;;9.83;3.60;;;;;;;21.33;47.32;101324.72;2304065;76;51465;-72
2020/12/16 08:28:26;;;;;;;7.58;4.05;;;;;;;21.35;47.25;101329.41;2300303;76;51526;-73
2020/12/16 08:31:31;;;;;;;8.88;3.65;;;;;;;21.38;47.26;101330.90;2292787;76;51542;-72
2020/12/16 08:34:35;;;;;;;11.45;3.98;;;;;;;21.38;47.23;101333.59;2289352;77;51527;-76
2020/12/16 08:37:37;;;;;;;10.88;4.22;;;;;;;21.40;47.17;101343.19;2307102;76;51465;-74
2020/12/16 08:40:42;;;;;;;9.18;3.77;;;;;;;21.42;47.12;101338.94;2268064;76;52131;-75
2020/12/16 08:43:46;;;;;;;11.83;3.92;;;;;;;21.43;47.05;101329.86;2307108;76;50672;-72
2020/12/16 08:46:48;;;;;;;11.85;3.87;;;;;;;21.31;47.29;101337.52;2303964;76;51536;-76
2020/12/16 08:49:51;;;;;;;10.53;4.12;;;;;;;21.24;47.40;101344.13;2291127;76;50417;-73
2020/12/16 08:52:54;;;;;;;10.85;3.67;;;;;;;21.19;47.49;101352.44;2320679;75;50689;-74
2020/12/16 08:55:56;;;;;;;8.65;3.77;;;;;;;21.17;47.51;101354.47;2320393;76;50431;-75
2020/12/16 08:59:09;;;;;;;8.10;3.80;;;;;;;21.10;47.65;101357.91;2293141;75;50713;-74
2020/12/16 09:02:11;;;;;;;11.40;4.60;;;;;;;21.15;47.59;101360.05;2317592;76;50262;-75
2020/12/16 09:05:13;;;;;;;13.43;4.55;;;;;;;21.14;47.71;101362.40;2318995;76;50722;-75
2020/12/16 09:08:16;;;;;;;10.50;3.90;;;;;;;21.18;47.72;101365.58;2305156;76;50693;-74
2020/12/16 09:11:20;;;;;;;16.87;4.30;;;;;;;21.18;47.64;101359.68;2309814;76;50429;-75
2020/12/16 09:14:22;;;;;;;10.88;4.10;;;;;;;21.15;47.73;101360.57;2309721;76;51508;-75
2020/12/16 09:17:29;;;;;;;14.65;4.60;;;;;;;21.20;47.65;101363.55;2318619;76;50463;-75
2020/12/16 09:20:32;;;;;;;15.60;4.58;;;;;;;21.20;47.66;101362.20;2318518;76;50275;-74
2020/12/16 09:23:34;;;;;;;13.62;4.33;;;;;;;21.19;47.66;101365.89;2290902;76;50474;-75
2020/12/16 09:26:42;;;;;;;9.55;4.33;;;;;;;21.21;47.62;101362.52;2275249;76;51489;-74
2020/12/16 09:29:46;;;;;;;12.10;4.58;;;;;;;21.19;47.65;101361.34;2293673;76;50388;-73
2020/12/16 09:32:48;;;;;;;11.50;4.53;;;;;;;21.24;47.53;101356.77;2304678;76;51579;-74
2020/12/16 09:35:54;;;;;;;11.65;4.03;;;;;;;21.25;47.47;101363.84;2317196;76;51521;-75
2020/12/16 09:39:01;;;;;;;11.25;4.75;;;;;;;21.20;47.56;101363.55;2290788;75;50732;-75
2020/12/16 09:42:09;;;;;;;11.25;4.33;;;;;;;21.13;47.76;101367.98;2282147;76;50782;-74
2020/12/16 09:45:15;;;;;;;10.35;4.75;;;;;;;21.04;47.93;101372.09;2305932;76;50689;-75
2020/12/16 09:48:17;;;;;;;12.10;4.90;;;;;;;21.10;47.82;101375.39;2275939;76;22382;-72
2020/12/16 09:51:20;;;;;;;17.25;5.90;;;;;;;21.04;47.94;101380.66;2269413;76;50385;-73
2020/12/16 09:54:30;;;;;;;12.95;5.40;;;;;;;21.10;47.82;101375.91;2275213;76;50760;-73
2020/12/16 09:57:32;;;;;;;13.78;5.45;;;;;;;21.14;47.74;101380.41;2274278;76;50503;-73
2020/12/16 10:00:35;;;;;;;13.68;5.87;;;;;;;21.09;47.93;101385.84;2284092;77;50700;-74
2020/12/16 10:03:37;;;;;;;12.98;6.30;;;;;;;21.18;47.92;101395.19;2299375;77;51533;-73
2020/12/16 10:06:39;;;;;;;15.32;7.50;;;;;;;21.26;47.85;101397.80;2305483;76;50715;-72
2020/12/16 10:09:52;;;;;;;18.27;6.90;;;;;;;21.28;47.70;101401.14;2287431;76;50414;-73
2020/12/16 10:12:46;;;;;;;13.62;7.22;;;;;;;21.37;47.41;101394.65;2303880;75;21765;-73
2020/12/16 10:15:48;;;;;;;13.18;6.50;;;;;;;21.31;47.45;101396.73;2285246;76;51571;-74
2020/12/16 10:18:50;;;;;;;13.75;7.35;;;;;;;21.23;47.54;101395.47;2286667;76;51442;-75
2020/12/16 10:21:52;;;;;;;16.48;7.90;;;;;;;21.13;47.48;101394.89;2278039;76;52343;-74
2020/12/16 10:24:55;;;;;;;18.00;9.80;;;;;;;21.17;47.20;101393.02;2298683;75;51494;-74
2020/12/16 10:27:57;;;;;;;14.80;8.25;;;;;;;21.12;47.15;101386.48;2287350;76;51605;-74
2020/12/16 10:30:59;;;;;;;17.50;8.88;;;;;;;21.08;47.09;101386.84;2304260;75;49979;-75
2020/12/16 10:34:01;;;;;;;17.75;8.05;;;;;;;21.09;47.09;101395.27;2319973;76;50457;-75
2020/12/16 10:37:03;;;;;;;32.70;10.00;;;;;;;21.03;47.69;101400.52;2319012;76;50734;-75
2020/12/16 10:40:09;;;;;;;26.33;9.23;;;;;;;20.90;48.07;101398.44;2319131;76;51483;-76
2020/12/16 10:43:09;;;;;;;22.95;9.38;;;;;;;20.82;48.29;101403.88;2320138;75;22751;-77
2020/12/16 10:46:12;;;;;;;22.37;8.68;;;;;;;20.81;48.37;101404.91;2281945;76;50346;-75
2020/12/16 10:49:14;;;;;;;28.07;9.03;;;;;;;20.81;48.35;101411.64;2301234;76;50708;-74
2020/12/16 10:52:16;;;;;;;18.40;7.55;;;;;;;20.84;48.26;101409.92;2319721;75;50275;-75
2020/12/16 10:55:19;;;;;;;21.17;7.90;;;;;;;20.86;48.13;101399.31;2321936;75;50375;-77
2020/12/16 10:58:21;;;;;;;20.70;8.08;;;;;;;20.86;48.16;101405.21;2300743;76;50388;-77
2020/12/16 11:01:23;;;;;;;25.30;7.58;;;;;;;20.88;48.22;101400.46;2303945;76;51689;-77
2020/12/16 11:04:29;;;;;;;16.23;7.10;;;;;;;20.88;48.24;101409.87;2289469;75;50359;-75
2020/12/16 11:07:32;;;;;;;19.12;7.47;;;;;;;20.85;48.28;101400.83;2305006;76;51501;-76
2020/12/16 11:10:34;;;;;;;22.80;7.53;;;;;;;20.81;48.38;101392.81;2305153;76;50410;-75
2020/12/16 11:13:36;;;;;;;25.82;7.47;;;;;;;20.81;48.41;101390.13;2316556;75;50709;-76
2020/12/16 11:16:40;;;;;;;16.97;7.35;;;;;;;20.76;48.58;101389.30;2287245;76;51445;-79
2020/12/16 11:19:42;;;;;;;20.60;7.35;;;;;;;20.79;48.60;101393.48;2292443;76;22795;-76
2020/12/16 11:22:44;;;;;;;19.00;7.25;;;;;;;20.81;48.60;101398.19;2313610;76;50237;-76
2020/12/16 11:25:46;;;;;;;13.75;7.12;;;;;;;20.82;48.61;101393.95;2305268;76;50344;-76
2020/12/16 11:28:49;;;;;;;13.22;6.60;;;;;;;20.83;48.64;101396.99;2316513;75;50437;-75
2020/12/16 11:31:52;;;;;;;16.05;6.70;;;;;;;20.83;48.61;101392.95;2290775;76;50721;-76
2020/12/16 11:34:54;;;;;;;13.65;6.10;;;;;;;20.89;48.58;101399.47;2295552;76;51632;-76
2020/12/16 11:37:56;;;;;;;12.90;5.72;;;;;;;20.90;48.54;101398.44;2314724;76;52381;-75
2020/12/16 11:40:58;;;;;;;10.53;5.67;;;;;;;20.91;48.51;101400.13;2305032;76;50171;-75
2020/12/16 11:44:01;;;;;;;17.10;6.22;;;;;;;20.92;48.50;101396.41;2312684;76;50435;-75
2020/12/16 11:47:06;;;;;;;13.68;6.70;;;;;;;20.90;48.49;101391.71;2306124;76;50643;-76
2020/12/16 11:50:11;;;;;;;12.23;6.17;;;;;;;20.87;48.53;101393.42;2317199;76;51566;-74
2020/12/16 11:53:14;;;;;;;15.30;6.10;;;;;;;20.81;48.54;101385.56;2303556;76;51567;-74
2020/12/16 11:56:16;;;;;;;13.40;6.33;;;;;;;20.80;48.61;101395.98;2295658;76;50765;-73
2020/12/16 11:59:18;;;;;;;12.47;6.40;;;;;;;20.80;48.63;101395.16;2300567;77;51561;-74
2020/12/16 12:02:20;;;;;;;12.55;5.92;;;;;;;20.80;48.67;101386.56;2310575;76;51504;-74
2020/12/16 12:05:22;;;;;;;10.78;5.60;;;;;;;20.81;48.62;101383.39;2294802;76;51604;-74
2020/12/16 12:08:25;;;;;;;11.28;5.83;;;;;;;20.84;48.70;101400.00;2303269;75;50478;-74
2020/12/16 12:11:28;;;;;;;9.88;6.00;;;;;;;20.81;48.66;101394.98;2313597;75;51560;-73
2020/12/16 12:14:30;;;;;;;11.75;5.65;;;;;;;20.85;48.60;101403.52;2281626;76;51661;-74
2020/12/16 12:17:32;;;;;;;10.95;5.75;;;;;;;20.86;48.54;101406.04;2319325;75;50668;-75
2020/12/16 12:20:35;;;;;;;12.15;6.08;;;;;;;20.84;48.52;101410.76;2319294;76;51491;-75
2020/12/16 12:23:37;;;;;;;10.55;5.55;;;;;;;20.83;48.53;101401.03;2307688;76;51491;-75
2020/12/16 12:26:39;;;;;;;7.53;5.00;;;;;;;20.79;48.59;101401.56;2290903;75;49793;-74
2020/12/16 12:29:41;;;;;;;7.30;5.22;;;;;;;20.75;48.72;101390.30;2296342;75;50281;-74
2020/12/16 12:32:43;;;;;;;11.00;6.08;;;;;;;20.75;48.77;101392.16;2316234;76;50362;-74
2020/12/16 12:35:46;;;;;;;10.82;5.20;;;;;;;20.76;48.72;101396.55;2285111;76;50696;-74
2020/12/16 12:38:49;;;;;;;9.43;5.22;;;;;;;20.77;48.74;101392.83;2318986;76;50292;-75
2020/12/16 12:41:53;;;;;;;8.85;5.08;;;;;;;20.79;48.69;101390.80;2307800;75;50425;-76
2020/12/16 12:44:55;;;;;;;9.10;5.20;;;;;;;20.81;48.62;101391.46;2294145;75;50392;-75
2020/12/16 12:47:57;;;;;;;10.00;5.17;;;;;;;20.82;48.58;101401.20;2320000;76;51502;-74
2020/12/16 12:50:59;;;;;;;11.88;5.47;;;;;;;20.87;48.50;101400.14;2315194;75;50472;-74
2020/12/16 12:54:02;;;;;;;8.08;4.85;;;;;;;20.87;48.41;101402.33;2289051;76;51050;-75
2020/12/16 12:57:04;;;;;;;10.40;5.80;;;;;;;20.86;48.41;101396.63;2302904;76;50728;-74
2020/12/16 13:00:06;;;;;;;10.45;4.83;;;;;;;20.81;48.42;101394.98;2319941;75;51505;-75
2020/12/16 13:03:08;;;;;;;7.60;4.85;;;;;;;20.80;48.49;101389.77;2291150;75;50753;-73
2020/12/16 13:06:11;;;;;;;14.40;5.40;;;;;;;20.78;48.55;101393.14;2302171;76;51494;-74
2020/12/16 13:09:13;;;;;;;9.55;5.45;;;;;;;20.76;48.62;101400.06;2315519;76;51474;-73
2020/12/16 13:12:15;;;;;;;8.53;4.70;;;;;;;20.74;48.67;101385.95;2310955;76;50022;-72
2020/12/16 13:15:18;;;;;;;7.65;4.87;;;;;;;20.73;48.82;101388.33;2301559;76;50724;-77
2020/12/16 13:18:20;;;;;;;8.58;4.72;;;;;;;20.77;48.70;101395.52;2314191;76;50723;-77
2020/12/16 13:21:22;;;;;;;10.00;4.58;;;;;;;20.80;48.73;101391.11;2300645;75;51567;-77
2020/12/16 13:24:25;;;;;;;11.88;4.55;;;;;;;20.85;48.66;101408.38;2310381;75;51476;-78
2020/12/16 13:27:27;;;;;;;7.30;4.33;;;;;;;21.02;48.58;101401.55;2304594;76;51428;-78
2020/12/16 13:30:29;;;;;;;10.10;4.53;;;;;;;20.94;48.61;101401.62;2277157;76;51504;-78
2020/12/16 13:33:33;;;;;;;6.95;4.28;;;;;;;20.88;48.85;101401.81;2319155;76;51664;-76
2020/12/16 13:36:35;;;;;;;13.93;4.20;;;;;;;20.81;48.99;101397.67;2286051;75;50748;-77
2020/12/16 13:39:39;;;;;;;9.40;4.20;;;;;;;20.95;48.80;101408.15;2298701;76;51675;-77
2020/12/16 13:42:42;;;;;;;7.80;4.50;;;;;;;21.02;48.61;101405.07;2284641;76;51638;-77
2020/12/16 13:45:44;;;;;;;8.23;4.37;;;;;;;21.00;48.70;101400.89;2304070;76;50330;-77
2020/12/16 13:48:48;;;;;;;9.40;4.50;;;;;;;21.05;48.53;101395.80;2306416;76;50360;-76
2020/12/16 13:51:51;;;;;;;10.67;4.50;;;;;;;21.06;48.48;101404.19;2316821;75;51704;-77
2020/12/16 13:54:53;;;;;;;6.65;4.20;;;;;;;21.14;48.28;101407.31;2317944;76;51583;-78
2020/12/16 13:57:56;;;;;;;8.40;3.98;;;;;;;20.97;48.68;101412.84;2279583;76;50156;-78
2020/12/16 14:01:02;;;;;;;9.63;5.35;;;;;;;20.93;48.86;101414.72;2308230;76;50641;-77
2020/12/16 14:04:04;;;;;;;12.60;4.80;;;;;;;21.02;48.42;101411.80;2298871;76;50433;-77
2020/12/16 14:07:08;;;;;;;13.43;4.80;;;;;;;20.97;48.42;101418.23;2318420;75;50179;-77